Time;durP1;ratioP1;P1;durP2;ratioP2;P2;SDS_P1;SDS_P2;PMS_P1;PMS_P2;Temp;Humidity;BMP_temperature;BMP_pressure;BME280_temperature;BME280_humidity;BME280_pressure;Samples;Min_cycle;Max_cycle;Signal;HPM_P1;HPM_P2
2023/09/17 00:00:48;;;;;;;5.60;5.13;;;;;;;23.59;68.88;99882.78;10310593;28;20054;-63
2023/09/17 00:05:49;;;;;;;4.95;4.55;;;;;;;23.46;69.66;99882.88;10306918;28;20073;-63
2023/09/17 00:10:50;;;;;;;4.68;4.28;;;;;;;23.45;69.80;99889.38;10305829;28;20148;-64
2023/09/17 00:15:53;;;;;;;5.00;4.60;;;;;;;23.39;70.53;99880.22;10304678;28;20054;-64
2023/09/17 00:20:54;;;;;;;5.07;4.68;;;;;;;23.39;70.92;99888.34;10300679;28;20082;-64
2023/09/17 00:25:55;;;;;;;5.40;4.88;;;;;;;23.35;71.00;99886.28;10305429;28;20200;-64
2023/09/17 00:30:57;;;;;;;5.78;5.32;;;;;;;23.32;70.75;99890.25;10310176;28;20073;-64
2023/09/17 00:35:58;;;;;;;6.68;6.03;;;;;;;23.28;71.53;99895.31;10306113;28;20054;-63
2023/09/17 00:41:00;;;;;;;5.55;5.05;;;;;;;23.25;71.60;99895.69;10304735;28;20729;-64
2023/09/17 00:46:02;;;;;;;6.47;5.03;;;;;;;23.21;71.58;99891.78;10312732;28;20042;-64
2023/09/17 00:51:04;;;;;;;5.53;5.03;;;;;;;23.19;71.78;99896.56;10305023;28;20480;-64
2023/09/17 00:56:06;;;;;;;5.82;5.32;;;;;;;23.15;71.88;99892.63;10309035;28;20056;-64
2023/09/17 01:01:12;;;;;;;5.60;5.10;;;;;;;23.10;71.83;99889.72;10306891;28;20135;-64
2023/09/17 01:06:14;;;;;;;5.68;5.18;;;;;;;22.95;71.94;99871.81;10306793;28;20124;-64
2023/09/17 01:11:15;;;;;;;5.68;5.15;;;;;;;22.97;72.13;99873.44;10309930;28;21364;-63
2023/09/17 01:16:17;;;;;;;5.25;4.75;;;;;;;22.92;72.22;99872.22;10368093;28;20042;-64
2023/09/17 01:21:38;;;;;;;5.18;4.78;;;;;;;22.95;72.28;99882.66;10370825;28;20076;-64
2023/09/17 01:26:43;;;;;;;5.18;4.78;;;;;;;22.94;71.95;99875.56;10373057;28;20046;-66
2023/09/17 01:31:45;;;;;;;5.18;4.68;;;;;;;22.92;71.85;99872.22;10351980;28;20170;-64
2023/09/17 01:36:48;;;;;;;5.22;4.72;;;;;;;22.80;71.76;99863.06;10355485;28;20127;-64
2023/09/17 01:41:50;;;;;;;4.97;4.50;;;;;;;22.75;71.51;99861.00;10358235;28;20621;-63
2023/09/17 01:46:52;;;;;;;5.47;4.97;;;;;;;22.77;71.31;99858.91;10341475;28;20140;-64
2023/09/17 01:51:56;;;;;;;4.30;3.80;;;;;;;22.73;71.51;99867.69;10353458;28;20540;-63
2023/09/17 01:56:57;;;;;;;4.93;4.53;;;;;;;22.66;71.59;99861.44;10348465;28;20091;-64
2023/09/17 02:01:59;;;;;;;5.05;4.45;;;;;;;22.76;71.47;99880.84;10339252;28;20661;-63
2023/09/17 02:07:00;;;;;;;4.80;4.40;;;;;;;22.74;71.69;99874.78;10352019;28;20057;-64
2023/09/17 02:12:02;;;;;;;5.07;4.65;;;;;;;22.67;71.62;99869.38;10348582;28;20045;-64
2023/09/17 02:17:03;;;;;;;5.65;4.85;;;;;;;22.67;71.72;99882.94;10336593;28;20188;-64
2023/09/17 02:22:05;;;;;;;7.32;4.97;;;;;;;22.60;71.51;99863.94;10350907;28;20057;-64
2023/09/17 02:27:07;;;;;;;5.65;5.22;;;;;;;22.67;71.60;99882.09;10349641;28;20049;-64
2023/09/17 02:32:10;;;;;;;6.95;5.45;;;;;;;22.63;71.42;99881.69;10341043;28;20123;-64
2023/09/17 02:37:11;;;;;;;5.90;5.37;;;;;;;22.63;71.58;99878.16;10349146;28;20057;-64
2023/09/17 02:42:13;;;;;;;5.78;5.28;;;;;;;22.52;71.83;99856.06;10307688;28;20703;-64
2023/09/17 02:47:15;;;;;;;6.70;5.03;;;;;;;22.56;71.68;99868.16;10314024;28;20756;-64
2023/09/17 02:52:16;;;;;;;5.70;5.20;;;;;;;22.48;72.42;99865.66;10309378;28;20054;-64
2023/09/17 02:57:18;;;;;;;6.18;5.68;;;;;;;22.54;72.10;99881.06;10303999;28;22862;-64
2023/09/17 03:02:19;;;;;;;6.22;5.63;;;;;;;22.52;72.06;99896.72;10350885;28;20602;-63
2023/09/17 03:07:21;;;;;;;5.97;5.47;;;;;;;22.48;71.62;99889.22;10352706;28;20045;-64
2023/09/17 03:12:23;;;;;;;5.07;4.63;;;;;;;22.47;71.69;99896.50;10349055;28;20054;-64
2023/09/17 03:17:24;;;;;;;5.57;5.07;;;;;;;22.46;72.20;99899.44;10339510;28;20582;-64
2023/09/17 03:22:26;;;;;;;5.53;5.03;;;;;;;22.42;71.94;99894.44;10347991;28;20554;-64
2023/09/17 03:27:27;;;;;;;5.00;4.45;;;;;;;22.43;71.82;99889.88;10354229;28;20057;-65
2023/09/17 03:32:29;;;;;;;5.68;5.00;;;;;;;22.41;72.25;99881.09;10349632;28;20053;-63
2023/09/17 03:37:31;;;;;;;7.93;5.55;;;;;;;22.34;72.25;99881.09;10345404;28;20224;-62
2023/09/17 03:42:34;;;;;;;6.55;4.97;;;;;;;22.30;72.39;99874.41;10339085;28;20049;-65
2023/09/17 03:47:36;;;;;;;10.35;5.93;;;;;;;22.33;72.30;99884.03;10341852;28;20045;-63
2023/09/17 03:52:42;;;;;;;5.57;5.07;;;;;;;22.29;72.61;99874.59;10339492;28;20119;-64
2023/09/17 03:57:44;;;;;;;5.72;5.22;;;;;;;22.29;72.70;99872.72;10348355;28;20056;-64
2023/09/17 04:02:46;;;;;;;5.78;5.28;;;;;;;22.27;72.83;99871.28;10351013;28;20056;-65
2023/09/17 04:07:48;;;;;;;6.35;5.60;;;;;;;22.15;72.92;99861.06;10378010;28;20057;-64
2023/09/17 04:12:49;;;;;;;5.57;5.07;;;;;;;22.18;73.24;99879.63;10370087;28;20049;-62
2023/09/17 04:17:51;;;;;;;6.05;5.45;;;;;;;22.16;73.52;99879.00;10350106;28;20490;-64
2023/09/17 04:22:53;;;;;;;5.95;5.35;;;;;;;22.17;73.61;99879.81;10338665;28;20084;-64
2023/09/17 04:27:55;;;;;;;5.88;5.38;;;;;;;22.09;73.57;99872.75;10346793;28;20144;-65
2023/09/17 04:32:56;;;;;;;5.97;5.47;;;;;;;22.17;73.79;99890.66;10343391;28;20695;-63
2023/09/17 04:37:58;;;;;;;6.50;5.78;;;;;;;22.12;73.83;99888.59;10347315;28;20212;-64
2023/09/17 04:43:00;;;;;;;6.22;5.32;;;;;;;22.10;74.39;99889.81;10346918;28;20049;-64
2023/09/17 04:48:02;;;;;;;6.97;5.85;;;;;;;22.06;73.75;99890.25;10345858;28;20057;-62
2023/09/17 04:53:04;;;;;;;6.28;5.68;;;;;;;22.04;74.23;99888.81;10337588;28;20049;-62
2023/09/17 04:58:05;;;;;;;6.28;5.78;;;;;;;22.01;74.56;99900.06;10349801;28;20046;-65
2023/09/17 05:03:07;;;;;;;6.13;5.50;;;;;;;21.93;75.08;99884.00;10349190;28;20046;-64
2023/09/17 05:08:08;;;;;;;5.50;5.00;;;;;;;21.99;74.90;99907.53;10308552;28;20046;-64
2023/09/17 05:13:10;;;;;;;6.25;5.65;;;;;;;21.97;75.35;99909.63;10302893;28;20203;-65
2023/09/17 05:18:11;;;;;;;6.03;5.43;;;;;;;21.91;75.59;99899.63;10304549;28;20457;-64
2023/09/17 05:23:13;;;;;;;6.03;5.38;;;;;;;21.91;75.45;99910.47;10306692;28;20057;-64
2023/09/17 05:28:15;;;;;;;6.85;6.25;;;;;;;21.91;75.70;99915.88;10304912;28;20137;-64
2023/09/17 05:33:16;;;;;;;6.60;5.88;;;;;;;21.88;75.60;99920.66;10309298;28;20671;-64
2023/09/17 05:38:18;;;;;;;6.20;5.70;;;;;;;21.87;75.59;99908.16;10306187;28;20465;-63
2023/09/17 05:43:19;;;;;;;6.65;6.00;;;;;;;21.84;75.56;99919.41;10309314;28;20103;-64
2023/09/17 05:48:21;;;;;;;6.85;6.22;;;;;;;21.84;75.62;99921.28;10305125;28;20050;-63
2023/09/17 05:53:22;;;;;;;6.70;6.10;;;;;;;21.96;75.19;99945.88;10301902;28;20070;-63
2023/09/17 05:58:24;;;;;;;6.82;6.22;;;;;;;21.98;75.25;99946.50;10309471;28;20050;-64
2023/09/17 06:03:25;;;;;;;6.50;5.90;;;;;;;21.95;74.85;99946.91;10317552;28;20347;-64
2023/09/17 06:08:29;;;;;;;6.97;6.35;;;;;;;21.94;75.07;99954.22;10312881;28;20058;-65
2023/09/17 06:13:31;;;;;;;7.32;5.75;;;;;;;21.95;74.30;99968.59;10311441;28;20077;-65
2023/09/17 06:18:34;;;;;;;7.72;6.72;;;;;;;21.94;74.94;99962.34;10308615;28;20054;-62
2023/09/17 06:23:35;;;;;;;7.50;6.80;;;;;;;21.97;75.10;99971.97;10319798;28;20053;-64
2023/09/17 06:28:37;;;;;;;8.13;7.13;;;;;;;21.99;74.81;99967.16;10303684;28;20042;-64
2023/09/17 06:33:38;;;;;;;6.72;6.03;;;;;;;21.96;75.00;99960.25;10306284;28;20064;-63
2023/09/17 06:38:40;;;;;;;6.32;5.82;;;;;;;22.11;74.10;99967.38;10317670;28;20504;-64
2023/09/17 06:43:41;;;;;;;7.00;6.40;;;;;;;22.34;74.17;99956.16;10324386;28;20160;-63
2023/09/17 06:48:44;;;;;;;6.43;5.90;;;;;;;22.38;73.52;99952.00;10321869;28;20050;-67
2023/09/17 06:53:46;;;;;;;6.80;5.97;;;;;;;22.25;72.93;99939.28;10337588;28;20049;-65
2023/09/17 06:58:49;;;;;;;6.05;5.20;;;;;;;22.41;73.28;99962.44;10371313;28;20045;-65
2023/09/17 07:03:52;;;;;;;6.10;5.50;;;;;;;22.41;73.83;99952.44;10320557;28;20156;-64
2023/09/17 07:08:55;;;;;;;5.93;5.32;;;;;;;22.41;73.79;99946.16;10311296;28;20061;-64
2023/09/17 07:13:57;;;;;;;6.50;5.90;;;;;;;22.51;72.91;99959.31;10307176;28;20058;-64
2023/09/17 07:19:01;;;;;;;6.57;5.43;;;;;;;22.81;72.65;99967.84;10312373;28;20058;-65
2023/09/17 07:24:03;;;;;;;6.20;5.63;;;;;;;23.06;71.89;99964.44;10307817;28;20200;-63
2023/09/17 07:29:05;;;;;;;6.47;5.97;;;;;;;23.21;71.72;99966.94;10306000;28;20057;-64
2023/09/17 07:34:06;;;;;;;7.65;7.03;;;;;;;23.28;71.64;99957.75;10307569;28;20464;-64
2023/09/17 07:39:09;;;;;;;8.20;7.40;;;;;;;23.51;70.71;99983.56;10309710;28;20085;-64
2023/09/17 07:44:10;;;;;;;7.78;7.07;;;;;;;23.58;69.62;99970.75;10307024;28;20062;-64
2023/09/17 07:49:12;;;;;;;7.72;6.63;;;;;;;23.54;69.67;99955.97;10311052;28;20090;-64
2023/09/17 07:54:13;;;;;;;10.02;7.82;;;;;;;23.88;68.78;99988.44;10310735;28;20137;-64
2023/09/17 07:59:16;;;;;;;8.47;7.10;;;;;;;24.05;68.27;99994.19;10315400;28;20054;-64
2023/09/17 08:04:17;;;;;;;6.93;6.32;;;;;;;24.08;67.86;99985.59;10307328;28;20052;-65
2023/09/17 08:09:19;;;;;;;6.03;5.43;;;;;;;24.06;67.79;99976.81;10306188;28;20073;-62
2023/09/17 08:14:22;;;;;;;6.13;5.57;;;;;;;24.31;67.31;99985.84;10309434;28;20053;-63
2023/09/17 08:19:24;;;;;;;6.53;5.80;;;;;;;24.36;67.27;99979.75;10307838;28;20050;-64
2023/09/17 08:24:26;;;;;;;6.40;5.60;;;;;;;24.45;67.52;99989.28;10309108;28;20633;-64
2023/09/17 08:29:28;;;;;;;5.30;4.80;;;;;;;24.45;67.11;99977.59;10305063;28;20049;-65
2023/09/17 08:34:29;;;;;;;5.90;5.30;;;;;;;24.59;65.40;99978.34;10307714;28;20054;-65
2023/09/17 08:39:31;;;;;;;4.57;4.18;;;;;;;24.81;65.81;99989.66;10306164;28;20080;-64
2023/09/17 08:44:35;;;;;;;5.07;4.20;;;;;;;24.82;64.15;99977.72;10303956;28;20050;-63
2023/09/17 08:49:38;;;;;;;4.75;4.05;;;;;;;24.75;61.69;99966.06;10302554;28;20046;-64
2023/09/17 08:54:43;;;;;;;4.30;3.90;;;;;;;24.92;61.84;99998.97;10300311;28;20065;-64
2023/09/17 08:59:49;;;;;;;4.32;3.90;;;;;;;24.95;62.25;99993.94;10305090;28;20052;-64
2023/09/17 09:04:50;;;;;;;4.15;3.63;;;;;;;25.14;61.91;99991.22;10304578;28;20151;-64
2023/09/17 09:09:52;;;;;;;4.70;4.18;;;;;;;25.19;61.35;99972.28;10313803;28;20064;-63
2023/09/17 09:14:57;;;;;;;4.53;3.35;;;;;;;25.47;59.62;99970.97;10306020;28;20504;-64
2023/09/17 09:19:58;;;;;;;4.50;3.80;;;;;;;25.59;59.28;99952.78;10310076;28;20188;-65
2023/09/17 09:25:02;;;;;;;4.40;3.30;;;;;;;26.02;57.65;99981.78;10309591;28;20050;-64
2023/09/17 09:30:09;;;;;;;3.53;3.22;;;;;;;26.33;54.59;99971.66;10305229;28;20065;-64
2023/09/17 09:35:11;;;;;;;3.17;2.88;;;;;;;26.56;55.50;99976.31;10308221;28;20072;-65
2023/09/17 09:40:15;;;;;;;3.10;2.80;;;;;;;26.87;53.86;99970.78;10318010;28;20065;-63
2023/09/17 09:45:17;;;;;;;5.78;3.10;;;;;;;26.87;52.86;99949.75;10311048;28;20057;-64
2023/09/17 09:50:22;;;;;;;4.72;2.70;;;;;;;27.40;53.27;99974.41;10312386;28;20732;-65
2023/09/17 09:55:24;;;;;;;3.30;3.00;;;;;;;27.50;52.86;99970.00;10313779;28;20049;-63
2023/09/17 10:00:26;;;;;;;3.05;2.75;;;;;;;27.47;52.23;99964.16;10313397;28;20042;-64
2023/09/17 10:05:33;;;;;;;;;;;;;;;27.52;51.10;99956.09;10309664;28;20227;-64
2023/09/17 10:10:37;;;;;;;4.95;3.00;;;;;;;27.34;50.66;99971.56;10315770;28;19921;-63
2023/09/17 10:15:41;;;;;;;4.07;3.30;;;;;;;27.27;51.21;99950.91;10313730;28;20046;-63
2023/09/17 10:20:44;;;;;;;6.10;3.10;;;;;;;27.33;52.24;99944.50;10312238;28;20119;-64
2023/09/17 10:25:47;;;;;;;;;;;;;;;27.62;51.26;99958.19;10308234;28;20054;-63
2023/09/17 10:30:51;;;;;;;5.40;3.35;;;;;;;27.89;51.05;99936.53;10308612;28;20019;-64
2023/09/17 10:35:56;;;;;;;3.50;3.20;;;;;;;28.29;49.51;99932.88;10309803;28;20580;-63
2023/09/17 10:40:58;;;;;;;4.25;3.20;;;;;;;28.76;49.93;99936.38;10310070;28;20624;-64
2023/09/17 10:46:01;;;;;;;6.43;3.83;;;;;;;29.04;48.27;99927.16;10312651;28;20709;-63
2023/09/17 10:51:03;;;;;;;3.78;2.97;;;;;;;29.39;48.09;99909.53;10310225;28;20061;-63
2023/09/17 10:56:09;;;;;;;6.28;3.33;;;;;;;29.99;46.59;99917.84;10313802;28;20038;-64
2023/09/17 11:01:15;;;;;;;3.28;2.97;;;;;;;30.26;45.17;99898.59;10308144;28;20054;-64
2023/09/17 11:06:23;;;;;;;3.15;2.53;;;;;;;30.54;44.49;99908.44;10309027;28;20057;-63
2023/09/17 11:11:29;;;;;;;4.75;2.92;;;;;;;30.85;43.86;99911.34;10305509;28;20052;-63
2023/09/17 11:16:34;;;;;;;4.32;2.03;;;;;;;30.91;42.97;99904.81;10306890;28;20555;-63
2023/09/17 11:21:43;;;;;;;3.78;3.28;;;;;;;30.91;40.97;99893.81;10323601;28;20629;-64
2023/09/17 11:26:45;;;;;;;3.17;2.35;;;;;;;31.01;41.20;99888.38;10310712;28;20078;-64
2023/09/17 11:31:50;;;;;;;2.58;2.13;;;;;;;31.38;41.38;99892.91;10310082;28;20052;-64
2023/09/17 11:36:57;;;;;;;4.70;2.50;;;;;;;31.76;39.62;99895.47;10310536;28;20057;-64
2023/09/17 11:42:05;;;;;;;4.43;2.72;;;;;;;31.66;38.95;99889.97;10308349;28;20054;-65
2023/09/17 11:47:07;;;;;;;3.47;2.30;;;;;;;31.81;39.97;99887.25;10309049;28;20120;-64
2023/09/17 11:52:11;;;;;;;6.25;3.50;;;;;;;31.98;38.93;99892.47;10311665;28;20089;-64
2023/09/17 11:57:12;;;;;;;6.55;3.00;;;;;;;32.25;38.28;99883.16;10310252;28;20133;-64
2023/09/17 12:02:17;;;;;;;4.88;3.45;;;;;;;32.41;38.65;99887.53;10307004;28;20046;-63
2023/09/17 12:07:19;;;;;;;4.90;2.38;;;;;;;32.43;38.81;99879.81;10308996;28;20050;-64
2023/09/17 12:12:20;;;;;;;5.38;2.42;;;;;;;32.27;37.90;99880.94;10315904;28;20183;-64
2023/09/17 12:17:22;;;;;;;5.50;2.72;;;;;;;32.29;38.79;99878.72;10329449;28;20066;-64
2023/09/17 12:22:24;;;;;;;5.20;2.88;;;;;;;32.23;38.63;99874.31;10363357;28;20046;-64
2023/09/17 12:32:34;;;;;;;3.67;2.90;;;;;;;32.16;39.45;99882.03;10348487;28;20118;-64
2023/09/17 12:37:35;;;;;;;4.63;2.67;;;;;;;31.90;38.74;99882.00;10346628;28;20054;-64
2023/09/17 12:42:37;;;;;;;3.65;3.25;;;;;;;32.16;37.89;99879.28;10345367;28;20058;-64
2023/09/17 12:47:40;;;;;;;4.97;2.65;;;;;;;32.27;38.56;99882.88;10344165;28;20448;-64
2023/09/17 12:52:42;;;;;;;4.60;2.95;;;;;;;32.35;37.79;99877.63;10344572;28;20129;-64
2023/09/17 12:57:48;;;;;;;7.35;3.25;;;;;;;32.10;39.03;99880.34;10348814;28;20838;-65
2023/09/17 13:02:53;;;;;;;5.88;3.20;;;;;;;31.63;39.42;99885.00;10340155;28;20061;-63
2023/09/17 13:07:55;;;;;;;4.72;2.70;;;;;;;31.02;40.31;99876.28;10346647;28;20069;-63
2023/09/17 13:12:57;;;;;;;6.32;2.58;;;;;;;31.38;39.68;99870.09;10350559;28;20660;-64
2023/09/17 13:17:59;;;;;;;5.25;2.45;;;;;;;32.34;38.83;99864.97;10339760;28;20073;-65
2023/09/17 13:23:01;;;;;;;3.42;2.65;;;;;;;33.01;37.46;99859.25;10332684;28;20123;-64
2023/09/17 13:28:17;;;;;;;6.55;2.78;;;;;;;32.46;38.06;99863.81;10351529;28;20119;-64
2023/09/17 13:33:19;;;;;;;5.95;3.03;;;;;;;32.23;38.48;99857.81;10350725;28;20121;-65
2023/09/17 13:38:21;;;;;;;3.78;2.20;;;;;;;32.02;38.97;99860.56;10350539;28;20049;-63
2023/09/17 13:43:22;;;;;;;4.57;2.40;;;;;;;31.71;38.40;99857.78;10350021;28;20443;-63
2023/09/17 13:48:24;;;;;;;;;;;;;;;31.59;39.63;99848.97;10350118;28;20120;-64
2023/09/17 13:53:25;;;;;;;6.65;2.70;;;;;;;31.64;39.38;99839.91;10353557;28;19925;-64
2023/09/17 13:58:27;;;;;;;4.88;2.83;;;;;;;31.52;39.95;99824.44;10339023;28;20056;-64
2023/09/17 14:03:28;;;;;;;3.78;2.47;;;;;;;31.36;40.11;99818.13;10336010;28;20079;-64
2023/09/17 14:08:34;;;;;;;8.50;2.65;;;;;;;31.25;39.99;99810.94;10338302;28;20081;-65
2023/09/17 14:13:35;;;;;;;6.20;3.20;;;;;;;31.17;40.36;99811.50;10346796;28;20062;-64
2023/09/17 14:18:37;;;;;;;5.18;2.92;;;;;;;31.05;40.29;99810.88;10347519;28;20061;-64
2023/09/17 14:23:39;;;;;;;5.72;2.40;;;;;;;30.83;40.50;99798.97;10335712;28;20623;-64
2023/09/17 14:28:41;;;;;;;7.57;3.13;;;;;;;30.61;41.43;99779.09;10340832;28;20123;-64
2023/09/17 14:33:43;;;;;;;3.93;2.77;;;;;;;30.55;41.23;99781.03;10348329;28;20054;-65
2023/09/17 14:38:45;;;;;;;6.22;2.70;;;;;;;30.31;41.50;99770.44;10347144;28;21245;-64
2023/09/17 14:43:46;;;;;;;;;;;;;;;30.19;41.96;99782.72;10349062;28;20053;-63
2023/09/17 14:48:50;;;;;;;5.22;2.60;;;;;;;30.07;42.67;99774.66;10336056;28;19932;-63
2023/09/17 14:53:52;;;;;;;6.38;2.80;;;;;;;29.90;43.36;99756.44;10350290;28;20141;-63
2023/09/17 14:58:54;;;;;;;4.33;2.33;;;;;;;29.87;43.36;99754.25;10345353;28;20145;-64
2023/09/17 15:03:55;;;;;;;7.85;3.65;;;;;;;29.67;43.42;99759.56;10335169;28;20584;-64
2023/09/17 15:08:57;;;;;;;4.33;2.80;;;;;;;29.59;43.78;99749.88;10339871;28;20053;-65
2023/09/17 15:13:59;;;;;;;7.63;3.20;;;;;;;29.42;44.00;99739.88;10329935;28;20053;-64
2023/09/17 15:19:00;;;;;;;6.13;2.65;;;;;;;29.41;44.14;99751.09;10346799;28;20049;-64
2023/09/17 15:24:05;;;;;;;8.23;2.87;;;;;;;29.33;44.46;99759.81;10347677;28;20049;-64
2023/09/17 15:29:10;;;;;;;7.13;3.42;;;;;;;29.18;44.16;99746.75;10343844;28;20524;-64
2023/09/17 15:34:13;;;;;;;5.63;2.70;;;;;;;29.16;44.94;99749.75;10345959;28;20584;-63
2023/09/17 15:39:15;;;;;;;5.40;2.50;;;;;;;29.00;44.86;99740.53;10346229;28;20791;-64
2023/09/17 15:44:19;;;;;;;3.33;2.60;;;;;;;29.01;45.44;99746.88;10347445;28;20054;-66
2023/09/17 15:49:20;;;;;;;5.78;2.78;;;;;;;28.91;45.09;99747.56;10329669;28;20097;-64
2023/09/17 15:54:22;;;;;;;5.53;2.30;;;;;;;28.87;45.48;99741.78;10347352;28;20050;-64
2023/09/17 15:59:23;;;;;;;4.03;2.73;;;;;;;28.82;45.38;99738.97;10348474;28;20136;-64
2023/09/17 16:04:24;;;;;;;4.50;2.53;;;;;;;28.81;45.15;99753.78;10349146;28;20518;-65
2023/09/17 16:09:26;;;;;;;6.40;2.43;;;;;;;28.70;45.52;99750.06;10345508;28;20046;-64
2023/09/17 16:14:27;;;;;;;8.40;3.13;;;;;;;28.59;45.83;99736.50;10348361;28;20053;-65
2023/09/17 16:19:30;;;;;;;7.50;3.57;;;;;;;28.65;45.93;99738.25;10346823;28;20053;-63
2023/09/17 16:24:31;;;;;;;;;;;;;;;28.64;45.96;99742.06;10346004;28;20069;-63
2023/09/17 16:29:33;;;;;;;5.45;3.35;;;;;;;28.60;46.50;99733.56;10346030;28;19925;-63
2023/09/17 16:34:36;;;;;;;7.25;2.95;;;;;;;28.56;47.04;99724.97;10349583;28;20135;-64
2023/09/17 16:39:37;;;;;;;7.95;3.45;;;;;;;28.50;46.81;99731.47;10349427;28;20061;-64
2023/09/17 16:44:39;;;;;;;7.23;3.73;;;;;;;28.34;46.91;99719.50;10367036;28;20052;-64
2023/09/17 16:49:41;;;;;;;5.68;2.97;;;;;;;28.33;47.13;99731.53;10379180;28;20072;-63
2023/09/17 16:54:42;;;;;;;6.93;3.10;;;;;;;28.28;47.39;99714.22;10347207;28;20050;-64
2023/09/17 16:59:43;;;;;;;10.27;3.65;;;;;;;28.23;47.49;99723.19;10348614;28;20754;-63
2023/09/17 17:04:47;;;;;;;12.13;4.13;;;;;;;28.17;47.81;99710.53;10347331;28;20064;-64
2023/09/17 17:09:49;;;;;;;6.93;4.18;;;;;;;28.17;48.31;99710.53;10341421;28;20098;-64
2023/09/17 17:14:50;;;;;;;7.50;3.47;;;;;;;28.12;48.49;99708.56;10346379;28;20479;-65
2023/09/17 17:19:53;;;;;;;5.05;3.40;;;;;;;28.06;48.40;99704.09;10348247;28;20704;-64
2023/09/17 17:24:55;;;;;;;5.32;3.28;;;;;;;27.99;48.80;99692.50;10342612;28;20143;-64
2023/09/17 17:29:56;;;;;;;8.85;4.18;;;;;;;27.86;48.81;99675.34;10342111;28;20045;-65
2023/09/17 17:34:58;;;;;;;7.70;4.00;;;;;;;27.77;49.39;99679.56;10340763;28;20061;-63
2023/09/17 17:39:59;;;;;;;6.65;4.38;;;;;;;27.78;48.98;99686.72;10344213;28;20060;-64
2023/09/17 17:45:02;;;;;;;11.17;3.93;;;;;;;27.75;49.53;99680.94;10340527;28;20168;-64
2023/09/17 17:50:04;;;;;;;8.02;3.83;;;;;;;27.64;49.36;99685.41;10345904;28;20145;-64
2023/09/17 17:55:06;;;;;;;11.35;5.57;;;;;;;27.62;49.89;99684.81;10343222;28;20562;-65
2023/09/17 18:00:09;;;;;;;10.37;5.43;;;;;;;27.56;50.35;99680.34;10354538;28;20159;-63
2023/09/17 18:05:10;;;;;;;7.85;4.28;;;;;;;27.49;51.17;99680.53;10341198;28;20053;-66
2023/09/17 18:10:13;;;;;;;7.55;4.00;;;;;;;27.39;51.64;99678.47;10351577;28;20128;-64
2023/09/17 18:15:18;;;;;;;6.70;3.80;;;;;;;27.28;51.35;99668.44;10348235;28;20132;-64
2023/09/17 18:20:20;;;;;;;5.72;3.47;;;;;;;27.26;51.35;99678.75;10336547;28;20077;-64
2023/09/17 18:25:23;;;;;;;8.80;4.10;;;;;;;27.22;51.86;99674.84;10351769;28;20099;-63
2023/09/17 18:30:25;;;;;;;6.88;4.07;;;;;;;27.09;53.03;99674.09;10351755;28;20049;-65
2023/09/17 18:35:27;;;;;;;10.48;5.07;;;;;;;26.96;52.98;99672.53;10354263;28;20350;-65
2023/09/17 18:40:29;;;;;;;;;;;;;;;27.02;53.84;99681.63;10352041;28;20057;-64
2023/09/17 18:45:31;;;;;;;8.55;5.07;;;;;;;26.90;53.31;99678.13;10352271;28;19927;-65
2023/09/17 18:50:33;;;;;;;8.55;5.07;;;;;;;26.88;53.87;99694.75;10350931;28;20053;-64
2023/09/17 18:55:35;;;;;;;8.77;4.38;;;;;;;26.82;53.92;99684.81;10346660;28;20054;-63
2023/09/17 19:00:37;;;;;;;8.80;4.80;;;;;;;26.77;54.35;99688.28;10351215;28;20053;-63
2023/09/17 19:05:40;;;;;;;8.95;4.25;;;;;;;26.71;54.45;99677.50;10349535;28;20609;-65
2023/09/17 19:10:42;;;;;;;7.85;4.57;;;;;;;26.66;54.34;99675.47;10346690;28;20075;-64
2023/09/17 19:15:46;;;;;;;6.78;4.30;;;;;;;26.63;54.68;99662.31;10345158;28;20126;-64
2023/09/17 19:20:48;;;;;;;5.80;3.53;;;;;;;26.53;55.06;99654.78;10336726;28;20059;-64
2023/09/17 19:25:50;;;;;;;7.20;4.17;;;;;;;26.48;54.91;99642.94;10353796;28;20060;-64
2023/09/17 19:30:51;;;;;;;7.35;4.10;;;;;;;26.47;55.24;99655.75;10339114;28;20151;-65
2023/09/17 19:35:53;;;;;;;7.82;4.15;;;;;;;26.41;54.93;99652.09;10339357;28;20076;-64
2023/09/17 19:40:54;;;;;;;6.93;4.20;;;;;;;26.37;55.08;99645.47;10361450;28;20137;-65
2023/09/17 19:45:56;;;;;;;7.50;3.90;;;;;;;26.25;55.12;99628.31;10384169;28;20150;-64
2023/09/17 19:50:58;;;;;;;11.07;4.75;;;;;;;26.24;55.24;99638.41;10381946;28;20045;-64
2023/09/17 19:56:00;;;;;;;9.60;4.00;;;;;;;26.24;55.20;99652.03;10381836;28;20053;-64
2023/09/17 20:01:02;;;;;;;5.72;3.75;;;;;;;26.15;56.10;99636.28;10370515;28;20050;-63
2023/09/17 20:06:04;;;;;;;6.40;3.95;;;;;;;26.20;56.02;99644.59;10363925;28;20126;-65
2023/09/17 20:11:06;;;;;;;10.57;4.18;;;;;;;26.16;55.56;99640.66;10350183;28;20281;-64
2023/09/17 20:16:07;;;;;;;5.07;4.03;;;;;;;26.13;55.83;99638.44;10345074;28;20087;-64
2023/09/17 20:21:10;;;;;;;8.98;3.35;;;;;;;25.99;56.48;99633.25;10346811;28;20069;-64
2023/09/17 20:26:11;;;;;;;8.38;4.93;;;;;;;26.00;56.18;99639.50;10346409;28;20092;-63
2023/09/17 20:31:13;;;;;;;7.80;5.38;;;;;;;25.88;56.73;99620.41;10343378;28;20140;-64
2023/09/17 20:36:14;;;;;;;12.38;5.43;;;;;;;25.83;57.13;99618.41;10344103;28;20068;-63
2023/09/17 20:41:16;;;;;;;9.63;4.13;;;;;;;25.77;57.66;99601.09;10348031;28;20068;-64
2023/09/17 20:46:18;;;;;;;5.90;3.80;;;;;;;25.76;58.26;99615.81;10343531;28;20593;-65
2023/09/17 20:51:19;;;;;;;6.30;4.43;;;;;;;25.70;58.76;99616.78;10349629;28;20045;-63
2023/09/17 20:56:20;;;;;;;6.05;4.35;;;;;;;25.65;58.96;99610.38;10348444;28;20084;-64
2023/09/17 21:01:22;;;;;;;8.50;3.75;;;;;;;25.61;58.94;99603.75;10339157;28;20140;-63
2023/09/17 21:06:23;;;;;;;7.47;3.95;;;;;;;25.48;59.41;99596.66;10346081;28;20065;-64
2023/09/17 21:11:26;;;;;;;5.80;3.60;;;;;;;25.46;60.27;99596.91;10345877;28;20455;-64
2023/09/17 21:16:29;;;;;;;6.35;4.05;;;;;;;25.37;60.19;99590.97;10348217;28;20037;-65
2023/09/17 21:21:30;;;;;;;;;;;;;;;25.31;60.69;99594.66;10349110;28;20049;-64
2023/09/17 21:26:32;;;;;;;4.28;3.72;;;;;;;25.21;61.59;99583.47;10327553;28;19925;-63
2023/09/17 21:31:33;;;;;;;5.65;3.25;;;;;;;25.13;62.15;99581.09;10337245;28;20045;-65
2023/09/17 21:36:35;;;;;;;5.72;4.07;;;;;;;24.97;62.51;99569.84;10335999;28;20045;-64
2023/09/17 21:41:36;;;;;;;6.40;3.75;;;;;;;24.97;63.03;99569.84;10353875;28;20060;-63
2023/09/17 21:46:38;;;;;;;9.57;4.35;;;;;;;24.97;63.24;99556.22;10351575;28;20584;-64
2023/09/17 21:51:40;;;;;;;5.13;3.90;;;;;;;24.96;63.48;99554.56;10352411;28;20455;-63
2023/09/17 21:56:41;;;;;;;6.30;4.13;;;;;;;24.82;63.89;99537.63;10367623;28;20168;-63
2023/09/17 22:01:44;;;;;;;6.35;3.88;;;;;;;24.87;64.25;99539.66;10403732;28;20112;-64
2023/09/17 22:06:45;;;;;;;7.05;4.40;;;;;;;24.81;63.80;99532.44;10351270;28;20806;-64
2023/09/17 22:11:47;;;;;;;6.43;4.43;;;;;;;24.76;63.96;99519.53;10353894;28;20056;-63
2023/09/17 22:16:48;;;;;;;6.72;3.67;;;;;;;24.69;64.23;99527.78;10352075;28;20050;-64
2023/09/17 22:21:50;;;;;;;7.28;4.40;;;;;;;24.64;63.94;99527.66;10350848;28;20049;-64
2023/09/17 22:26:51;;;;;;;6.78;3.53;;;;;;;24.60;63.92;99521.03;10351691;28;20052;-63
2023/09/17 22:31:52;;;;;;;6.57;3.60;;;;;;;24.48;64.42;99526.41;10336316;28;20342;-63
2023/09/17 22:36:54;;;;;;;6.70;4.28;;;;;;;24.46;63.67;99516.84;10352869;28;20129;-65
2023/09/17 22:41:55;;;;;;;4.68;3.60;;;;;;;24.46;63.66;99508.69;10354595;28;20073;-64
2023/09/17 22:46:57;;;;;;;6.93;3.63;;;;;;;24.44;63.17;99498.03;10351701;28;20065;-64
2023/09/17 22:51:58;;;;;;;6.72;3.75;;;;;;;24.45;63.69;99498.84;10353665;28;20099;-63
2023/09/17 22:57:00;;;;;;;5.90;3.20;;;;;;;24.39;63.77;99483.47;10349458;28;20148;-64
2023/09/17 23:02:01;;;;;;;5.35;3.78;;;;;;;24.39;63.11;99470.69;10349175;28;20116;-64
2023/09/17 23:07:03;;;;;;;6.85;3.00;;;;;;;24.30;64.00;99474.81;10347494;28;20073;-64
2023/09/17 23:12:05;;;;;;;7.10;3.50;;;;;;;24.08;64.57;99434.59;10349281;28;20052;-64
2023/09/17 23:17:06;;;;;;;6.95;4.22;;;;;;;24.16;63.89;99466.84;10348402;28;20053;-64
2023/09/17 23:22:08;;;;;;;4.05;3.28;;;;;;;24.15;63.95;99467.09;10330834;28;20065;-64
2023/09/17 23:27:09;;;;;;;5.65;4.25;;;;;;;24.04;63.09;99443.44;10349641;28;20769;-64
2023/09/17 23:32:13;;;;;;;4.82;3.60;;;;;;;24.06;63.53;99441.31;10348472;28;20123;-64